Time;durP1;ratioP1;P1;durP2;ratioP2;P2;SDS_P1;SDS_P2;PMS_P1;PMS_P2;Temp;Humidity;BMP_temperature;BMP_pressure;BME280_temperature;BME280_humidity;BME280_pressure;Samples;Min_cycle;Max_cycle;Signal;HPM_P1;HPM_P2
2022/01/26 00:13:46;;;;;;;25.95;7.85;;;3.60;99.90;;;;;;20804938;28;20037;-45
2022/01/26 00:44:10;;;;;;;24.17;7.63;;;3.50;99.90;;;;;;20796795;28;20357;-45
2022/01/26 00:54:10;;;;;;;26.30;7.95;;;3.50;99.90;;;;;;20794648;28;20148;-45
2022/01/26 01:04:11;;;;;;;19.50;7.87;;;3.50;99.90;;;;;;20793350;28;20034;-45
2022/01/26 01:14:12;;;;;;;20.85;7.45;;;3.50;99.90;;;;;;20809478;28;20296;-45
2022/01/26 01:34:37;;;;;;;32.42;7.68;;;3.50;99.90;;;;;;20800771;28;20052;-45
2022/01/26 01:44:41;;;;;;;23.50;7.07;;;3.40;99.90;;;;;;20846410;28;20054;-45
2022/01/26 01:54:48;;;;;;;28.35;8.48;;;3.40;99.90;;;;;;20841193;28;20061;-45
2022/01/26 02:04:48;;;;;;;;;;;3.50;99.90;;;;;;20820598;28;20033;-45
2022/01/26 02:14:54;;;;;;;30.75;10.15;;;3.50;99.90;;;;;;20820081;28;19924;-45
2022/01/26 02:57:26;;;;;;;34.53;10.18;;;3.60;99.90;;;;;;20741052;28;20129;-45
2022/01/26 03:16:57;;;;;;;27.58;9.93;;;3.60;99.90;;;;;;20740848;28;20059;-45
2022/01/26 03:37:17;;;;;;;33.95;9.02;;;3.60;99.90;;;;;;20720616;28;20058;-42
2022/01/26 03:47:18;;;;;;;45.28;12.35;;;3.70;99.90;;;;;;20780478;28;20121;-42
2022/01/26 03:57:19;;;;;;;29.45;9.32;;;3.60;99.90;;;;;;20804258;28;20048;-44
2022/01/26 04:07:19;;;;;;;26.48;10.10;;;3.60;99.90;;;;;;20802872;28;20057;-44
2022/01/26 04:17:20;;;;;;;32.70;9.35;;;3.60;99.90;;;;;;20814937;28;20064;-44
2022/01/26 04:27:46;;;;;;;32.88;11.88;;;3.60;99.90;;;;;;20806773;28;20076;-44
2022/01/26 04:48:03;;;;;;;39.75;11.88;;;3.60;99.90;;;;;;20821116;28;20489;-44
2022/01/26 04:58:04;;;;;;;29.42;8.05;;;3.60;99.90;;;;;;20825920;28;20563;-44
2022/01/26 05:08:05;;;;;;;32.38;9.68;;;3.60;99.90;;;;;;20828066;28;20393;-43
2022/01/26 05:18:06;;;;;;;34.55;11.13;;;3.60;99.90;;;;;;20826148;28;20144;-44
2022/01/26 05:28:07;;;;;;;38.40;10.50;;;3.60;99.90;;;;;;20819630;28;20041;-43
2022/01/26 05:38:08;;;;;;;32.92;9.95;;;3.60;99.90;;;;;;20825759;28;20141;-43
2022/01/26 05:48:12;;;;;;;43.30;13.20;;;3.50;99.90;;;;;;20824673;28;20040;-43
2022/01/26 05:58:13;;;;;;;43.30;11.27;;;3.50;99.90;;;;;;20817431;28;20041;-44
2022/01/26 06:08:13;;;;;;;48.10;11.73;;;3.50;99.90;;;;;;20812317;28;20048;-43
2022/01/26 06:18:14;;;;;;;38.70;10.68;;;3.50;99.90;;;;;;20809239;28;20060;-44
2022/01/26 06:28:16;;;;;;;35.10;9.37;;;3.50;99.90;;;;;;20816113;28;20413;-44
2022/01/26 06:38:17;;;;;;;32.28;11.13;;;3.50;99.90;;;;;;20807579;28;20303;-44
2022/01/26 06:58:27;;;;;;;39.35;10.02;;;3.60;99.90;;;;;;20807166;28;20087;-43
2022/01/26 07:08:28;;;;;;;24.98;8.80;;;3.70;99.90;;;;;;20810286;28;20045;-43
2022/01/26 07:28:48;;;;;;;28.10;8.48;;;3.90;99.90;;;;;;20808303;28;20384;-43
2022/01/26 07:38:50;;;;;;;24.38;6.50;;;4.00;99.90;;;;;;20808007;28;20042;-44
2022/01/26 07:48:51;;;;;;;28.00;8.98;;;3.90;99.90;;;;;;20817392;28;20560;-44
2022/01/26 07:58:52;;;;;;;21.38;7.80;;;3.90;99.90;;;;;;20807497;28;20049;-44
2022/01/26 08:08:53;;;;;;;32.72;9.57;;;3.90;99.90;;;;;;20816013;28;20424;-43
2022/01/26 08:18:54;;;;;;;34.17;8.45;;;3.80;99.90;;;;;;20817652;28;20076;-43
2022/01/26 08:28:56;;;;;;;28.10;8.15;;;3.80;99.90;;;;;;20816165;28;20060;-46
2022/01/26 08:38:57;;;;;;;28.17;8.98;;;3.90;99.90;;;;;;20806403;28;20045;-43
2022/01/26 08:48:58;;;;;;;33.58;8.45;;;3.80;99.90;;;;;;20822567;28;20074;-43
2022/01/26 08:58:58;;;;;;;23.15;6.93;;;3.90;99.90;;;;;;20824614;28;20045;-43
2022/01/26 09:09:06;;;;;;;25.10;7.90;;;3.90;99.90;;;;;;20823904;28;20025;-43
2022/01/26 09:19:21;;;;;;;23.42;7.53;;;4.00;99.90;;;;;;20821399;28;20335;-43
2022/01/26 09:29:22;;;;;;;19.05;6.30;;;4.10;99.90;;;;;;20831314;28;20041;-43
2022/01/26 09:39:23;;;;;;;21.15;5.25;;;4.10;99.90;;;;;;20840119;28;20053;-43
2022/01/26 09:49:31;;;;;;;18.10;6.10;;;4.20;99.90;;;;;;20842072;28;20064;-43
2022/01/26 09:59:33;;;;;;;22.30;6.67;;;4.30;99.90;;;;;;20839897;28;20110;-46
2022/01/26 10:19:34;;;;;;;14.87;5.03;;;4.40;99.90;;;;;;20832476;28;20084;-44
2022/01/26 10:29:36;;;;;;;29.80;7.90;;;4.40;99.90;;;;;;20834253;28;20306;-44
2022/01/26 10:39:42;;;;;;;21.48;5.55;;;4.50;99.90;;;;;;20827989;28;20048;-44
2022/01/26 10:50:07;;;;;;;18.73;7.57;;;4.50;99.90;;;;;;20833153;28;20041;-44
2022/01/26 11:00:08;;;;;;;17.63;5.65;;;4.60;99.90;;;;;;20830078;28;20630;-44
2022/01/26 11:10:12;;;;;;;20.13;6.45;;;4.70;99.90;;;;;;20829481;28;20053;-44
2022/01/26 11:20:29;;;;;;;18.08;5.18;;;4.90;99.90;;;;;;20815801;28;20084;-44
2022/01/26 11:30:32;;;;;;;20.67;6.13;;;5.10;99.90;;;;;;20824431;28;20045;-44
2022/01/26 11:51:06;;;;;;;22.45;6.50;;;5.40;99.90;;;;;;20722705;28;20116;-44
2022/01/26 12:11:15;;;;;;;16.13;5.57;;;5.70;99.90;;;;;;20702794;28;20043;-44
2022/01/26 12:42:12;;;;;;;17.58;5.13;;;5.80;99.90;;;;;;20818044;28;20369;-44
2022/01/26 12:52:13;;;;;;;19.10;5.68;;;6.00;99.90;;;;;;20821755;28;20049;-44
2022/01/26 13:02:23;;;;;;;15.65;3.90;;;6.00;99.90;;;;;;20831817;28;20094;-44
2022/01/26 13:12:33;;;;;;;10.85;3.75;;;6.20;99.90;;;;;;20838357;28;20095;-44
2022/01/26 13:53:06;;;;;;;14.63;4.95;;;6.40;99.90;;;;;;20832874;28;20037;-45
2022/01/26 14:03:11;;;;;;;15.15;5.32;;;6.50;99.90;;;;;;20841650;28;20152;-44
2022/01/26 14:13:18;;;;;;;13.68;4.63;;;6.50;99.90;;;;;;20829501;28;20030;-44
2022/01/26 14:54:19;;;;;;;19.23;3.90;;;6.50;99.90;;;;;;20823540;28;20102;-44
2022/01/26 15:35:51;;;;;;;15.18;5.35;;;6.50;99.90;;;;;;20800014;28;20034;-44
2022/01/26 18:50:09;;;;;;;19.98;6.60;;;5.10;99.90;;;;;;20844194;28;20049;-45
2022/01/26 19:00:10;;;;;;;22.52;8.25;;;5.00;99.90;;;;;;20826477;28;20052;-44
2022/01/26 19:10:15;;;;;;;19.15;7.68;;;5.10;99.90;;;;;;20831896;28;20656;-44
2022/01/26 19:20:40;;;;;;;19.57;6.07;;;5.20;99.90;;;;;;20838729;28;20048;-45
2022/01/26 19:51:03;;;;;;;23.45;7.05;;;5.10;99.90;;;;;;20830982;28;20049;-44
2022/01/26 20:01:05;;;;;;;22.95;7.72;;;5.10;99.90;;;;;;20824996;28;20472;-44
2022/01/26 20:11:10;;;;;;;24.05;6.68;;;5.10;99.90;;;;;;20822702;28;20520;-44
2022/01/26 20:21:11;;;;;;;20.75;8.27;;;5.20;99.90;;;;;;20827663;28;20048;-45
2022/01/26 20:31:18;;;;;;;23.52;6.13;;;5.20;99.90;;;;;;20843306;28;20040;-44
2022/01/26 20:41:19;;;;;;;24.70;7.43;;;5.10;99.90;;;;;;20825637;28;20059;-44
2022/01/26 20:51:20;;;;;;;22.17;7.97;;;5.20;99.90;;;;;;20829666;28;20045;-45
2022/01/26 21:01:21;;;;;;;16.70;6.63;;;5.20;99.90;;;;;;20821860;28;20659;-45
2022/01/26 21:11:21;;;;;;;20.23;5.75;;;5.20;99.90;;;;;;20811813;28;20033;-45
2022/01/26 21:21:23;;;;;;;15.07;5.47;;;5.30;99.90;;;;;;20804310;28;20041;-45
2022/01/26 21:31:24;;;;;;;17.85;6.22;;;5.30;99.90;;;;;;20820619;28;20310;-45
2022/01/26 21:41:25;;;;;;;20.65;6.35;;;5.40;99.90;;;;;;20867164;28;20048;-45
2022/01/26 21:51:28;;;;;;;13.27;5.30;;;5.40;99.90;;;;;;20825292;28;20099;-45
2022/01/26 22:01:28;;;;;;;12.23;4.25;;;5.70;99.90;;;;;;20829143;28;20113;-44
2022/01/26 22:11:29;;;;;;;12.93;5.38;;;5.90;99.90;;;;;;20813295;28;20045;-45
2022/01/26 22:21:31;;;;;;;11.20;3.83;;;6.00;99.90;;;;;;20813186;28;20050;-45
2022/01/26 22:31:32;;;;;;;9.68;3.97;;;5.90;99.90;;;;;;20834515;28;20055;-44
2022/01/26 22:41:32;;;;;;;11.55;4.10;;;5.80;99.90;;;;;;20854649;28;20652;-44
2022/01/26 22:51:34;;;;;;;8.25;4.15;;;5.90;99.90;;;;;;20842888;28;20050;-45
2022/01/26 23:11:44;;;;;;;11.93;5.45;;;5.90;99.90;;;;;;20841260;28;20132;-44
2022/01/26 23:21:45;;;;;;;13.03;5.33;;;6.00;99.90;;;;;;20839512;28;20049;-45
